createdAt,value
2023-06-24T00:00:20.415Z,92909.97
2023-06-24T00:02:52.503Z,92909.03
2023-06-24T00:05:23.568Z,92901.75
2023-06-24T00:07:54.265Z,92898.47
2023-06-24T00:10:23.720Z,92897.94
2023-06-24T00:12:53.540Z,92894.09
2023-06-24T00:15:24.388Z,92889.19
2023-06-24T00:18:07.231Z,92890.06
2023-06-24T00:20:38.916Z,92881.63
2023-06-24T00:23:09.577Z,92881.94
2023-06-24T00:25:39.089Z,92880.50
2023-06-24T00:28:08.589Z,92874.09
2023-06-24T00:30:38.063Z,92872.28
2023-06-24T00:33:10.496Z,92877.09
2023-06-24T00:35:41.473Z,92881.56
2023-06-24T00:38:11.154Z,92877.19
2023-06-24T00:40:41.629Z,92872.00
2023-06-24T00:43:11.365Z,92854.41
2023-06-24T00:48:57.131Z,92862.63
2023-06-24T00:51:27.779Z,92865.03
2023-06-24T00:53:57.225Z,92851.84
2023-06-24T00:56:32.730Z,92851.03
2023-06-24T00:59:03.978Z,92848.75
2023-06-24T01:01:37.820Z,92849.38
2023-06-24T01:04:10.609Z,92848.84
2023-06-24T01:06:45.294Z,92852.75
2023-06-24T01:09:15.931Z,92845.50
2023-06-24T01:11:45.535Z,92844.59
2023-06-24T01:14:15.077Z,92844.03
2023-06-24T01:16:52.188Z,92850.88
2023-06-24T01:19:48.263Z,92843.19
2023-06-24T01:22:48.238Z,92843.19
2023-06-24T01:25:41.783Z,92841.53
2023-06-24T01:28:33.614Z,92844.03
2023-06-24T01:31:37.472Z,92843.69
2023-06-24T01:34:18.382Z,92843.56
2023-06-24T01:36:59.023Z,92846.34
2023-06-24T01:39:31.463Z,92843.84
2023-06-24T01:42:09.870Z,92837.13
2023-06-24T01:44:41.029Z,92837.66
2023-06-24T01:47:16.896Z,92838.41
2023-06-24T01:49:48.365Z,92831.75
2023-06-24T01:52:19.422Z,92835.34
2023-06-24T01:54:51.344Z,92844.38
2023-06-24T01:57:24.153Z,92848.84
2023-06-24T01:59:58.085Z,92843.56
2023-06-24T02:02:30.665Z,92829.94
2023-06-24T02:05:02.812Z,92832.41
2023-06-24T02:07:32.548Z,92833.13
2023-06-24T02:10:03.723Z,92845.06
2023-06-24T02:12:34.798Z,92851.31
2023-06-24T02:15:08.208Z,92852.66
2023-06-24T02:17:41.013Z,92852.81
2023-06-24T02:20:14.057Z,92864.22
2023-06-24T02:22:44.312Z,92864.09
2023-06-24T02:25:14.365Z,92868.66
2023-06-24T02:27:44.785Z,92868.00
2023-06-24T02:30:16.394Z,92863.41
2023-06-24T02:32:47.599Z,92871.47
2023-06-24T02:35:17.400Z,92866.66
2023-06-24T02:37:47.367Z,92875.97
2023-06-24T02:40:17.298Z,92890.09
2023-06-24T02:42:46.728Z,92888.44
2023-06-24T02:45:16.785Z,92893.59
2023-06-24T02:47:49.870Z,92895.50
2023-06-24T02:50:20.351Z,92891.34
2023-06-24T02:52:51.559Z,92884.75
2023-06-24T02:55:21.783Z,92893.16
2023-06-24T02:57:51.698Z,92901.28
2023-06-24T03:00:22.534Z,92898.97
2023-06-24T03:02:54.004Z,92902.00
2023-06-24T03:05:27.043Z,92901.31
2023-06-24T03:07:56.961Z,92896.44
2023-06-24T03:10:27.232Z,92894.19
2023-06-24T03:12:56.830Z,92891.28
2023-06-24T03:15:27.992Z,92894.34
2023-06-24T03:17:59.519Z,92888.94
2023-06-24T03:20:29.204Z,92900.56
2023-06-24T03:22:58.789Z,92895.97
2023-06-24T03:25:28.314Z,92900.94
2023-06-24T03:27:58.094Z,92899.25
2023-06-24T03:30:27.751Z,92905.91
2023-06-24T03:32:58.851Z,92904.94
2023-06-24T03:35:28.485Z,92904.53
2023-06-24T03:37:57.994Z,92902.31
2023-06-24T03:40:27.503Z,92905.16
2023-06-24T03:42:57.012Z,92901.16
2023-06-24T03:45:26.685Z,92892.59
2023-06-24T03:49:55.880Z,92893.22
2023-06-24T03:52:26.040Z,92888.63
2023-06-24T03:54:55.765Z,92892.34
2023-06-24T03:57:25.251Z,92891.59
2023-06-24T03:59:54.886Z,92896.94
2023-06-24T04:02:24.532Z,92894.94
2023-06-24T04:04:57.474Z,92898.19
2023-06-24T04:07:30.104Z,92893.66
2023-06-24T04:09:59.763Z,92886.38
2023-06-24T04:12:29.354Z,92882.91
2023-06-24T04:14:59.930Z,92887.31
2023-06-24T04:17:29.481Z,92883.94
2023-06-24T04:20:01.968Z,92892.16
2023-06-24T04:22:31.261Z,92890.72
2023-06-24T04:25:00.962Z,92892.66
2023-06-24T04:27:30.557Z,92894.25
2023-06-24T04:30:00.191Z,92901.13
2023-06-24T04:32:29.983Z,92894.22
2023-06-24T04:35:02.167Z,92903.34
2023-06-24T04:37:31.524Z,92899.09
2023-06-24T04:40:00.944Z,92898.28
2023-06-24T04:42:30.378Z,92892.91
2023-06-24T04:44:59.962Z,92896.19
2023-06-24T04:47:29.677Z,92888.25
2023-06-24T04:49:59.188Z,92894.53
2023-06-24T04:52:30.157Z,92892.88
2023-06-24T04:54:59.898Z,92896.31
2023-06-24T04:57:32.583Z,92888.16
2023-06-24T05:00:02.542Z,92889.59
2023-06-24T05:02:32.188Z,92893.66
2023-06-24T05:05:02.443Z,92891.75
2023-06-24T05:07:33.668Z,92890.13
2023-06-24T05:10:03.389Z,92895.38
2023-06-24T05:12:33.049Z,92896.09
2023-06-24T05:15:02.718Z,92894.81
2023-06-24T05:17:32.413Z,92896.13
2023-06-24T05:20:02.144Z,92904.47
2023-06-24T05:22:33.221Z,92903.94
2023-06-24T05:25:03.020Z,92911.91
2023-06-24T05:27:32.618Z,92911.13
2023-06-24T05:30:02.206Z,92917.63
2023-06-24T05:32:31.892Z,92916.34
2023-06-24T05:35:01.558Z,92920.84
2023-06-24T05:37:32.681Z,92925.16
2023-06-24T05:40:02.944Z,92925.56
2023-06-24T05:42:32.603Z,92923.50
2023-06-24T05:45:02.072Z,92926.50
2023-06-24T05:47:31.860Z,92922.16
2023-06-24T05:50:01.424Z,92929.47
2023-06-24T05:52:32.331Z,92922.41
2023-06-24T05:55:01.799Z,92927.25
2023-06-24T05:57:31.331Z,92927.13
2023-06-24T06:00:00.824Z,92928.19
2023-06-24T06:02:30.467Z,92931.53
2023-06-24T06:05:00.163Z,92933.41
2023-06-24T06:07:29.626Z,92931.91
2023-06-24T06:10:02.114Z,92930.72
2023-06-24T06:12:31.608Z,92932.41
2023-06-24T06:15:01.070Z,92935.28
2023-06-24T06:17:30.704Z,92934.25
2023-06-24T06:20:00.258Z,92936.13
2023-06-24T06:22:29.825Z,92936.56
2023-06-24T06:25:00.739Z,92937.22
2023-06-24T06:27:33.059Z,92931.72
2023-06-24T06:30:02.947Z,92926.41
2023-06-24T06:32:32.819Z,92927.91
2023-06-24T06:35:02.521Z,92924.47
2023-06-24T06:37:32.111Z,92924.28
2023-06-24T06:40:03.354Z,92927.78
2023-06-24T06:42:33.407Z,92923.88
2023-06-24T06:45:03.160Z,92925.00
2023-06-24T06:49:56.133Z,92912.94
2023-06-24T06:52:25.723Z,92912.53
2023-06-24T06:54:55.694Z,92917.88
2023-06-24T06:57:26.495Z,92922.22
2023-06-24T06:59:59.444Z,92914.38
2023-06-24T07:02:29.131Z,92919.72
2023-06-24T07:05:00.545Z,92916.88
2023-06-24T07:07:30.205Z,92926.19
2023-06-24T07:09:59.792Z,92920.00
2023-06-24T07:12:29.193Z,92921.66
2023-06-24T07:14:58.802Z,92916.78
2023-06-24T07:17:28.424Z,92922.34
2023-06-24T07:19:59.442Z,92920.72
2023-06-24T07:22:29.375Z,92932.00
2023-06-24T07:24:59.092Z,92927.69
2023-06-24T07:27:28.669Z,92925.84
2023-06-24T07:29:58.093Z,92923.16
2023-06-24T07:32:27.830Z,92925.03
2023-06-24T07:34:59.123Z,92928.53
2023-06-24T07:37:30.008Z,92928.53
2023-06-24T07:39:59.666Z,92929.97
2023-06-24T07:42:30.700Z,92927.72
2023-06-24T07:45:00.890Z,92926.25
2023-06-24T07:47:30.475Z,92921.06
2023-06-24T07:50:01.569Z,92932.41
2023-06-24T07:52:30.939Z,92931.56
2023-06-24T07:55:00.592Z,92929.72
2023-06-24T07:57:30.940Z,92932.97
2023-06-24T08:00:00.486Z,92938.31
2023-06-24T08:02:30.077Z,92941.44
2023-06-24T08:05:01.343Z,92943.69
2023-06-24T08:07:31.476Z,92941.59
2023-06-24T08:10:01.036Z,92938.06
2023-06-24T08:12:30.542Z,92940.56
2023-06-24T08:15:00.252Z,92946.13
2023-06-24T08:17:29.904Z,92941.84
2023-06-24T08:20:00.839Z,92944.34
2023-06-24T08:22:30.461Z,92943.03
2023-06-24T08:25:00.746Z,92933.03
2023-06-24T08:27:30.505Z,92941.00
2023-06-24T08:30:00.066Z,92939.94
2023-06-24T08:32:30.077Z,92943.78
2023-06-24T08:35:01.025Z,92942.44
2023-06-24T08:37:30.549Z,92942.13
2023-06-24T08:40:00.035Z,92947.25
2023-06-24T08:42:29.524Z,92943.50
2023-06-24T08:44:59.092Z,92941.06
2023-06-24T08:47:31.680Z,92948.78
2023-06-24T08:50:07.619Z,92945.50
2023-06-24T08:52:42.526Z,92945.59
2023-06-24T08:55:16.247Z,92936.25
2023-06-24T08:57:46.209Z,92943.28
2023-06-24T09:00:19.048Z,92942.00
2023-06-24T09:02:48.733Z,92944.19
2023-06-24T09:05:20.074Z,92939.56
2023-06-24T09:07:50.589Z,92931.47
2023-06-24T09:10:34.478Z,92939.81
2023-06-24T09:13:04.865Z,92945.03
2023-06-24T09:15:35.683Z,92945.88
2023-06-24T09:18:07.019Z,92942.72
2023-06-24T09:20:41.146Z,92944.13
2023-06-24T09:23:11.006Z,92946.22
2023-06-24T09:25:40.755Z,92945.28
2023-06-24T09:28:10.422Z,92948.41
2023-06-24T09:30:40.205Z,92944.47
2023-06-24T09:33:14.649Z,92933.34
2023-06-24T09:35:46.667Z,92929.13
2023-06-24T09:38:19.304Z,92929.94
2023-06-24T09:40:54.036Z,92925.44
2023-06-24T09:43:28.867Z,92923.84
2023-06-24T09:46:00.195Z,92920.91
2023-06-24T09:49:57.023Z,92915.41
2023-06-24T09:52:27.755Z,92913.09
2023-06-24T09:54:58.838Z,92917.28
2023-06-24T09:57:32.947Z,92911.66
2023-06-24T10:00:02.970Z,92901.38
2023-06-24T10:02:34.657Z,92897.94
2023-06-24T10:05:07.072Z,92892.56
2023-06-24T10:07:39.747Z,92885.69
2023-06-24T10:10:11.624Z,92895.69
2023-06-24T10:12:43.105Z,92898.63
2023-06-24T10:15:13.995Z,92890.69
2023-06-24T10:17:43.428Z,92890.38
2023-06-24T10:20:16.235Z,92887.00
2023-06-24T10:22:49.867Z,92885.25
2023-06-24T10:25:19.598Z,92882.38
2023-06-24T10:27:49.133Z,92887.88
2023-06-24T10:30:23.863Z,92887.72
2023-06-24T10:32:56.271Z,92893.00
2023-06-24T10:35:31.656Z,92888.81
2023-06-24T10:38:03.032Z,92882.34
2023-06-24T10:40:40.720Z,92884.34
2023-06-24T10:43:31.996Z,92883.06
2023-06-24T10:46:02.636Z,92882.94
2023-06-24T10:48:32.285Z,92874.88
2023-06-24T10:51:03.572Z,92875.34
2023-06-24T10:53:33.477Z,92862.47
2023-06-24T10:56:03.081Z,92863.91
2023-06-24T10:58:32.740Z,92859.22
2023-06-24T11:01:11.480Z,92857.53
2023-06-24T11:03:44.233Z,92856.03
2023-06-24T11:06:16.773Z,92859.00
2023-06-24T11:08:49.407Z,92861.47
2023-06-24T11:11:24.833Z,92847.53
2023-06-24T11:13:56.762Z,92849.47
2023-06-24T11:16:26.283Z,92840.56
2023-06-24T11:18:55.811Z,92840.00
2023-06-24T11:21:34.231Z,92837.22
2023-06-24T11:24:05.709Z,92831.13
2023-06-24T11:26:36.351Z,92825.47
2023-06-24T11:29:13.542Z,92817.75
2023-06-24T11:31:43.309Z,92815.06
2023-06-24T11:34:13.221Z,92806.41
2023-06-24T11:36:44.501Z,92798.91
2023-06-24T11:39:24.611Z,92804.16
2023-06-24T11:41:54.729Z,92804.53
2023-06-24T11:44:26.340Z,92802.59
2023-06-24T11:46:55.721Z,92802.06
2023-06-24T11:49:25.160Z,92809.16
2023-06-24T11:51:56.144Z,92806.91
2023-06-24T11:54:25.879Z,92798.97
2023-06-24T11:56:56.318Z,92800.38
2023-06-24T11:59:29.209Z,92790.16
2023-06-24T12:02:04.607Z,92788.59
2023-06-24T12:04:35.323Z,92792.03
2023-06-24T12:07:07.001Z,92788.78
2023-06-24T12:09:36.385Z,92789.81
2023-06-24T12:12:07.933Z,92787.00
2023-06-24T12:14:37.517Z,92790.63
2023-06-24T12:17:07.365Z,92779.78
2023-06-24T12:19:37.093Z,92782.22
2023-06-24T12:22:08.334Z,92787.03
2023-06-24T12:24:37.784Z,92782.78
2023-06-24T12:27:09.766Z,92782.31
2023-06-24T12:29:39.562Z,92780.19
2023-06-24T12:32:10.674Z,92775.84
2023-06-24T12:34:40.385Z,92781.72
2023-06-24T12:37:11.482Z,92771.75
2023-06-24T12:39:41.086Z,92768.00
2023-06-24T12:42:11.415Z,92770.25
2023-06-24T12:44:41.208Z,92766.72
2023-06-24T12:49:55.858Z,92764.38
2023-06-24T12:52:25.364Z,92761.78
2023-06-24T12:54:54.778Z,92750.47
2023-06-24T12:57:24.311Z,92741.28
2023-06-24T12:59:53.875Z,92734.09
2023-06-24T13:02:23.589Z,92733.94
2023-06-24T13:04:54.984Z,92732.50
2023-06-24T13:07:24.661Z,92729.34
2023-06-24T13:09:54.431Z,92725.94
2023-06-24T13:12:24.008Z,92725.38
2023-06-24T13:14:53.746Z,92717.31
2023-06-24T13:17:23.323Z,92715.06
2023-06-24T13:19:54.703Z,92704.28
2023-06-24T13:22:24.553Z,92699.88
2023-06-24T13:24:54.334Z,92705.03
2023-06-24T13:27:23.980Z,92707.19
2023-06-24T13:29:53.594Z,92712.56
2023-06-24T13:32:23.271Z,92709.72
2023-06-24T13:34:54.486Z,92704.94
2023-06-24T13:37:24.165Z,92704.13
2023-06-24T13:39:53.819Z,92706.00
2023-06-24T13:42:24.108Z,92711.38
2023-06-24T13:44:53.589Z,92697.47
2023-06-24T13:47:24.371Z,92703.81
2023-06-24T13:49:55.525Z,92708.38
2023-06-24T13:52:25.367Z,92705.75
2023-06-24T13:54:54.807Z,92713.34
2023-06-24T13:57:24.358Z,92725.28
2023-06-24T13:59:53.923Z,92732.59
2023-06-24T14:02:23.739Z,92736.31
2023-06-24T14:04:55.009Z,92727.31
2023-06-24T14:07:25.431Z,92729.75
2023-06-24T14:09:55.101Z,92739.16
2023-06-24T14:12:24.627Z,92742.75
2023-06-24T14:14:55.068Z,92748.50
2023-06-24T14:17:24.740Z,92751.16
2023-06-24T14:19:55.687Z,92743.41
2023-06-24T14:22:25.749Z,92744.00
2023-06-24T14:24:55.339Z,92743.88
2023-06-24T14:27:25.018Z,92741.28
2023-06-24T14:29:54.829Z,92737.19
2023-06-24T14:32:24.927Z,92737.16
2023-06-24T14:34:56.393Z,92743.53
2023-06-24T14:37:25.990Z,92752.25
2023-06-24T14:39:55.480Z,92754.13
2023-06-24T14:42:25.087Z,92758.34
2023-06-24T14:44:55.016Z,92761.38
2023-06-24T14:47:24.661Z,92754.31
2023-06-24T14:49:55.676Z,92757.28
2023-06-24T14:52:25.373Z,92758.78
2023-06-24T14:54:55.092Z,92763.41
2023-06-24T14:57:26.971Z,92768.00
2023-06-24T14:59:56.555Z,92759.44
2023-06-24T15:02:27.021Z,92748.47
2023-06-24T15:04:58.103Z,92741.00
2023-06-24T15:07:27.859Z,92740.31
2023-06-24T15:09:57.662Z,92734.81
2023-06-24T15:12:27.354Z,92733.03
2023-06-24T15:14:56.964Z,92722.72
2023-06-24T15:17:26.727Z,92726.22
2023-06-24T15:19:57.744Z,92730.41
2023-06-24T15:22:27.522Z,92748.81
2023-06-24T15:24:57.169Z,92744.75
2023-06-24T15:27:26.789Z,92758.94
2023-06-24T15:29:56.169Z,92755.59
2023-06-24T15:32:25.718Z,92765.50
2023-06-24T15:34:56.786Z,92768.78
2023-06-24T15:37:26.322Z,92769.22
2023-06-24T15:39:56.327Z,92769.44
2023-06-24T15:42:26.030Z,92771.50
2023-06-24T15:44:56.952Z,92765.81
2023-06-24T15:49:55.447Z,92770.41
2023-06-24T15:52:25.023Z,92776.03
2023-06-24T15:54:54.578Z,92768.66
2023-06-24T15:57:24.008Z,92759.03
2023-06-24T15:59:53.374Z,92759.09
2023-06-24T16:02:23.009Z,92770.63
2023-06-24T16:04:54.001Z,92769.34
2023-06-24T16:07:23.491Z,92773.88
2023-06-24T16:09:53.135Z,92763.81
2023-06-24T16:12:22.585Z,92759.69
2023-06-24T16:14:52.079Z,92757.00
2023-06-24T16:17:21.790Z,92757.00
2023-06-24T16:19:51.216Z,92760.31
2023-06-24T16:22:22.150Z,92772.56
2023-06-24T16:24:51.843Z,92772.16
2023-06-24T16:27:22.610Z,92766.09
2023-06-24T16:29:52.259Z,92760.13
2023-06-24T16:32:21.778Z,92766.97
2023-06-24T16:34:51.337Z,92770.69
2023-06-24T16:37:22.232Z,92763.09
2023-06-24T16:39:51.833Z,92759.00
2023-06-24T16:42:21.386Z,92746.03
2023-06-24T16:44:52.611Z,92750.78
2023-06-24T16:47:22.296Z,92749.13
2023-06-24T16:49:53.844Z,92751.41
2023-06-24T16:52:26.109Z,92744.19
2023-06-24T16:54:55.672Z,92745.44
2023-06-24T16:57:25.386Z,92752.41
2023-06-24T16:59:54.919Z,92753.84
2023-06-24T17:02:24.750Z,92755.06
2023-06-24T17:04:54.618Z,92763.47
2023-06-24T17:07:25.854Z,92760.97
2023-06-24T17:09:55.387Z,92768.59
2023-06-24T17:12:25.084Z,92769.59
2023-06-24T17:14:54.750Z,92781.88
2023-06-24T17:17:24.449Z,92778.59
2023-06-24T17:19:54.050Z,92784.53
2023-06-24T17:22:26.342Z,92781.06
2023-06-24T17:24:55.812Z,92785.53
2023-06-24T17:27:25.789Z,92785.31
2023-06-24T17:29:58.874Z,92782.88
2023-06-24T17:32:28.605Z,92795.38
2023-06-24T17:34:58.257Z,92792.03
2023-06-24T17:37:29.290Z,92789.16
2023-06-24T17:39:58.825Z,92792.25
2023-06-24T17:42:28.573Z,92785.44
2023-06-24T17:44:58.082Z,92793.00
2023-06-24T17:47:27.626Z,92801.41
2023-06-24T17:49:57.332Z,92790.31
2023-06-24T17:52:28.441Z,92799.66
2023-06-24T17:54:58.142Z,92797.97
2023-06-24T17:57:27.821Z,92788.91
2023-06-24T17:59:57.366Z,92792.34
2023-06-24T18:02:27.010Z,92784.53
2023-06-24T18:04:56.576Z,92784.53
2023-06-24T18:07:27.820Z,92783.06
2023-06-24T18:09:58.186Z,92783.34
2023-06-24T18:12:27.762Z,92784.88
2023-06-24T18:14:57.404Z,92779.31
2023-06-24T18:17:27.070Z,92770.38
2023-06-24T18:19:56.907Z,92772.97
2023-06-24T18:22:28.044Z,92775.84
2023-06-24T18:24:57.702Z,92777.03
2023-06-24T18:27:27.402Z,92789.19
2023-06-24T18:29:57.185Z,92787.44
2023-06-24T18:32:26.753Z,92790.16
2023-06-24T18:34:58.251Z,92798.63
2023-06-24T18:37:31.930Z,92801.13
2023-06-24T18:40:04.935Z,92795.28
2023-06-24T18:42:34.417Z,92794.56
2023-06-24T18:45:04.877Z,92791.34
2023-06-24T18:49:55.616Z,92801.44
2023-06-24T18:52:26.409Z,92810.34
2023-06-24T18:54:56.045Z,92804.03
2023-06-24T18:57:25.783Z,92806.13
2023-06-24T18:59:55.629Z,92804.34
2023-06-24T19:02:25.041Z,92794.63
2023-06-24T19:04:56.012Z,92798.84
2023-06-24T19:07:25.590Z,92792.41
2023-06-24T19:09:55.060Z,92796.81
2023-06-24T19:12:24.426Z,92799.72
2023-06-24T19:14:54.036Z,92796.78
2023-06-24T19:17:23.508Z,92798.78
2023-06-24T19:19:52.917Z,92809.13
2023-06-24T19:22:23.864Z,92806.91
2023-06-24T19:24:53.316Z,92801.00
2023-06-24T19:27:22.749Z,92800.25
2023-06-24T19:29:52.251Z,92797.25
2023-06-24T19:32:22.091Z,92797.69
2023-06-24T19:34:51.747Z,92789.28
2023-06-24T19:37:22.651Z,92783.50
2023-06-24T19:39:52.149Z,92781.03
2023-06-24T19:42:21.762Z,92774.44
2023-06-24T19:44:51.281Z,92768.03
2023-06-24T19:47:21.049Z,92763.41
2023-06-24T19:49:54.569Z,92766.16
2023-06-24T19:52:26.032Z,92756.91
2023-06-24T19:54:55.588Z,92753.06
2023-06-24T19:57:25.651Z,92757.56
2023-06-24T19:59:55.172Z,92748.47
2023-06-24T20:02:24.795Z,92741.59
2023-06-24T20:04:54.348Z,92750.56
2023-06-24T20:07:25.401Z,92752.84
2023-06-24T20:09:54.972Z,92754.38
2023-06-24T20:12:24.585Z,92756.56
2023-06-24T20:14:54.175Z,92759.22
2023-06-24T20:17:23.623Z,92767.19
2023-06-24T20:19:53.055Z,92761.09
2023-06-24T20:22:24.237Z,92767.91
2023-06-24T20:24:54.842Z,92755.66
2023-06-24T20:27:24.500Z,92758.97
2023-06-24T20:29:54.187Z,92761.16
2023-06-24T20:32:23.663Z,92765.78
2023-06-24T20:34:53.443Z,92767.44
2023-06-24T20:37:24.489Z,92782.56
2023-06-24T20:39:54.338Z,92783.03
2023-06-24T20:42:24.931Z,92780.75
2023-06-24T20:44:54.484Z,92782.22
2023-06-24T20:47:24.863Z,92781.22
2023-06-24T20:49:54.388Z,92777.25
2023-06-24T20:52:25.808Z,92772.28
2023-06-24T20:54:55.431Z,92770.00
2023-06-24T20:57:25.381Z,92770.47
2023-06-24T20:59:54.939Z,92774.47
2023-06-24T21:02:24.642Z,92769.50
2023-06-24T21:04:54.164Z,92773.97
2023-06-24T21:07:25.636Z,92767.03
2023-06-24T21:09:55.166Z,92769.50
2023-06-24T21:12:24.895Z,92767.97
2023-06-24T21:14:54.881Z,92774.59
2023-06-24T21:17:24.628Z,92774.41
2023-06-24T21:19:54.305Z,92783.63
2023-06-24T21:22:25.375Z,92789.72
2023-06-24T21:24:55.001Z,92785.28
2023-06-24T21:27:24.485Z,92776.97
2023-06-24T21:29:53.928Z,92785.09
2023-06-24T21:32:23.808Z,92785.69
2023-06-24T21:34:54.479Z,92782.13
2023-06-24T21:37:26.068Z,92780.47
2023-06-24T21:39:55.636Z,92780.56
2023-06-24T21:42:25.715Z,92780.09
2023-06-24T21:44:55.288Z,92783.72
2023-06-24T21:49:55.272Z,92783.06
2023-06-24T21:52:24.755Z,92778.78
2023-06-24T21:54:54.252Z,92776.25
2023-06-24T21:57:23.765Z,92765.03
2023-06-24T21:59:53.271Z,92763.19
2023-06-24T22:02:22.946Z,92753.63
2023-06-24T22:04:53.931Z,92750.81
2023-06-24T22:07:23.528Z,92750.50
2023-06-24T22:09:53.168Z,92761.03
2023-06-24T22:12:22.619Z,92760.19
2023-06-24T22:14:52.789Z,92764.59
2023-06-24T22:17:22.434Z,92747.69
2023-06-24T22:19:53.530Z,92742.25
2023-06-24T22:22:25.646Z,92749.16
2023-06-24T22:24:55.293Z,92748.47
2023-06-24T22:27:24.826Z,92744.69
2023-06-24T22:29:54.142Z,92745.22
2023-06-24T22:32:23.612Z,92735.19
2023-06-24T22:34:54.542Z,92730.56
2023-06-24T22:37:24.165Z,92727.59
2023-06-24T22:39:53.764Z,92726.63
2023-06-24T22:42:23.158Z,92728.41
2023-06-24T22:44:52.645Z,92726.41
2023-06-24T22:47:22.249Z,92727.31
2023-06-24T22:49:51.940Z,92722.81
2023-06-24T22:52:23.154Z,92721.97
2023-06-24T22:54:52.880Z,92719.03
2023-06-24T22:57:22.780Z,92713.13
2023-06-24T22:59:52.423Z,92708.03
2023-06-24T23:02:22.662Z,92706.25
2023-06-24T23:04:53.026Z,92714.69
2023-06-24T23:07:26.933Z,92704.94
2023-06-24T23:09:57.526Z,92706.94
2023-06-24T23:12:29.574Z,92705.13
2023-06-24T23:14:59.993Z,92705.44
2023-06-24T23:17:31.422Z,92709.38
2023-06-24T23:20:02.283Z,92706.56
2023-06-24T23:22:36.592Z,92701.75
2023-06-24T23:25:07.462Z,92707.53
2023-06-24T23:27:38.089Z,92700.25
2023-06-24T23:30:10.186Z,92702.84
2023-06-24T23:32:42.765Z,92710.44
2023-06-24T23:35:14.607Z,92715.72
2023-06-24T23:37:46.522Z,92713.09
2023-06-24T23:40:16.632Z,92710.91
2023-06-24T23:42:47.807Z,92716.19
2023-06-24T23:45:19.864Z,92715.09
2023-06-24T23:47:49.419Z,92722.66
2023-06-24T23:50:19.122Z,92732.25
2023-06-24T23:52:50.234Z,92727.94
2023-06-24T23:55:19.751Z,92715.09
2023-06-24T23:57:49.268Z,92715.56
